Summerville, Pennsylvania
Current Conditions -  °F | °C
As of 6:53 PM on Wednesday 22 Oct 2014 (Local Time) from KDUJ Reporting Station
Overcast Overcast  
Wind Chill: 36°   Ceiling: 1100
Heat Index: 44°   Visibility: 10mi
Dew Point: 40°   Wind: 18mph
Humidity: 85%   Direction: 350°N
Pressure: 30.12"   Gusts: 26mph
Location:  41.12°N, 79.19°W
Report Text: KDUJ 222253Z AUTO 35016G23KT 10SM OVC011 07/04 A3012 RMK AO2 SLP206 T00670044
Loading
Personal Weather Stations






























Interactive Weather Map
Tropical Storm Tracking
New forecast layout! Learn more

10-Day Weather Forecast

Advertisements
Track Severe Weather on mobile